Airfield :
LOGIN :

Register | Disclaimer

   EN    FR    IT 

 










Legend :    VFR   Marginal VFR   IFR   Intensive IFR   Very Intensive IFR
Visi :
Ceiling :
>= 8 km
>= 3000ft
5 to 8 km
1000 to 3000 ft
1500m to 5 km
500 to 1000 ft
800 to 1500m
200 to 500 ft
< 800m
< 200 ft
Symbols :   Thunderstorms  Fog  Heavy snow  Heavy precipitations  Wind > 20 kt
SIGMETs :     Misc.  Thunderstorms  Icing  Turbulence  Mountain Waves  Volcanic Ashes






- Airport Elevation : 302 ft
- IATA code : MAH


LEMH - Menorca

CURRENT METAR :
  • 121600Z 02013KT 350V050 9999 FEW040 29/08 Q1019

EXPIRED METARs :
  • 121530Z 02013KT 350V060 9999 FEW040 29/10 Q1019
  • 121500Z 05012KT 020V080 CAVOK 28/09 Q1018
  • 121430Z 04011KT 360V070 CAVOK 29/07 Q1019
  • 121400Z 04012KT 010V070 CAVOK 29/10 Q1019
  • 121330Z 02013KT 360V060 9999 FEW035 28/09 Q1019

TAF TAF LEMH
Valid from the 12 at 15:00 until the 13 at 15:00 UTC


121400Z 1215/1315 03010KT 9999 FEW030 TX30/1312Z TN21/1306Z
TEMPO 1220/1301 VRB04KT
PROB30
TEMPO 1305/1310 TSRA FEW080CB
TEMPO 1311/1315 VRB04KT



MET'MAP, your aeronautical weather chart ! - Copyright ORBIFLY December 2007 - Disclaimer

ORBIFLY MET'MAP TEAM :

Programming & Development : Alexandra Zaïnal
Concept & original design : Baudouin d'Aumeries
Assistance for programming : Marc-Olivier Méhu
Technical & hardware support : Manuel Goepfert

Contact : metmap@orbifly.com




SOURCES & CREDITS :

   NOAA